»·PEaware :: N71A KSAC-KRDD

N71A :: KSAC-KRDD

FLIGHT INFORMATION

Flight Status: Arrived
Operator: Privately registered:
United States
More flights under this callsign
Pilot: Cory A. (19347)
Aircraft: CESSNA 172 SKYHAWK
(C172)
More flights by this aircraft type
Origin: KSAC Sacramento Executive
United States
Destination: KRDD Redding Mun
United States
More flights between these airports :: More routes between these airports
Route: KSAC SAC KDWA ILA RBL KRDD
File this flight plan on PilotEdge
Remarks:
Altitude:
(Current/Filed)
6,500ft
Speed:
(Current/Filed)
115kts
Departed: 06-Jun-18 06:34 PM
Arrived: 06-Jun-18 07:47 PM
Distance/Time
Traveled:
125nm/1:13
Distance/Time
To Go:
Arrived

Flight Plot

Page will automatically refresh every two minutes.

Flight plan parsing failed; only flown route is shown


Map Options




Map Legend


Flown Route
Filed Route
Departure Airport
Arrival Airport
Navaid (VOR, NDB)
Fix

Horizontal Profiles

Position Reports

Time Latitude Longitude Heading Altitude Ground
Speed
06-Jun-18 18:13 38.511018 -121.499969 92 20ft 0kts
06-Jun-18 18:14 38.511018 -121.499969 92 20ft 0kts
06-Jun-18 18:15 38.511018 -121.499969 92 20ft 0kts
06-Jun-18 18:16 38.511018 -121.499969 92 20ft 0kts
06-Jun-18 18:17 38.511017 -121.499969 92 20ft 0kts
06-Jun-18 18:18 38.511017 -121.499969 92 20ft 0kts
06-Jun-18 18:19 38.511017 -121.499969 92 20ft 0kts
06-Jun-18 18:20 38.511018 -121.499969 92 20ft 0kts
06-Jun-18 18:21 38.511017 -121.499969 92 20ft 0kts
06-Jun-18 18:22 38.511018 -121.499969 92 20ft 0kts
06-Jun-18 18:23 38.511017 -121.499969 92 20ft 0kts
06-Jun-18 18:24 38.511018 -121.499969 92 20ft 0kts
06-Jun-18 18:25 38.511018 -121.499969 92 20ft 0kts
06-Jun-18 18:26 38.511017 -121.499969 92 20ft 0kts
06-Jun-18 18:27 38.511017 -121.499969 92 20ft 0kts
06-Jun-18 18:28 38.511017 -121.499969 92 20ft 0kts
06-Jun-18 18:29 38.511558 -121.497126 33 20ft 15kts
06-Jun-18 18:30 38.516073 -121.493382 32 22ft 0kts
06-Jun-18 18:31 38.516313 -121.493185 33 23ft 9kts
06-Jun-18 18:32 38.519187 -121.490415 103 23ft 0kts
06-Jun-18 18:33 38.519187 -121.490415 103 23ft 0kts
06-Jun-18 18:34 38.513910 -121.493389 211 134ft 55kts
06-Jun-18 18:35 38.497015 -121.507806 214 858ft 81kts
06-Jun-18 18:36 38.477671 -121.524388 213 1593ft 87kts
06-Jun-18 18:37 38.457357 -121.540700 211 2352ft 85kts
06-Jun-18 18:38 38.461230 -121.562868 295 2970ft 103kts
06-Jun-18 18:39 38.477344 -121.594850 289 3357ft 113kts
06-Jun-18 18:40 38.490480 -121.629618 289 3940ft 100kts
06-Jun-18 18:41 38.500935 -121.661180 282 4531ft 100kts
06-Jun-18 18:42 38.511151 -121.695322 281 5032ft 103kts
06-Jun-18 18:43 38.525454 -121.727718 298 5523ft 106kts
06-Jun-18 18:44 38.542767 -121.757692 297 6026ft 103kts
06-Jun-18 18:45 38.557630 -121.789537 295 6391ft 113kts
06-Jun-18 18:46 38.574976 -121.826202 295 6390ft 123kts
06-Jun-18 18:47 38.595902 -121.859895 339 6385ft 130kts
06-Jun-18 18:48 38.628744 -121.877745 332 6388ft 129kts
06-Jun-18 18:49 38.662719 -121.893104 338 6390ft 130kts
06-Jun-18 18:50 38.697725 -121.906315 339 6388ft 131kts
06-Jun-18 18:51 38.731431 -121.922806 320 6390ft 130kts
06-Jun-18 18:52 38.760783 -121.949614 319 6392ft 130kts
06-Jun-18 18:53 38.791127 -121.974957 327 6391ft 131kts
06-Jun-18 18:54 38.822584 -121.998107 343 6390ft 134kts
06-Jun-18 18:55 38.859845 -122.003266 350 6388ft 134kts
06-Jun-18 18:56 38.897169 -122.007722 351 6389ft 135kts
06-Jun-18 18:57 38.934515 -122.012055 352 6384ft 135kts
06-Jun-18 18:58 38.972015 -122.016346 353 6381ft 135kts
06-Jun-18 18:59 39.009613 -122.020634 353 6377ft 136kts
06-Jun-18 19:00 39.047240 -122.025217 352 6373ft 136kts
06-Jun-18 19:01 39.080677 -122.030008 352 6373ft 135kts
06-Jun-18 19:02 39.116741 -122.035177 352 6370ft 134kts
06-Jun-18 19:03 39.153930 -122.040504 352 6371ft 134kts
06-Jun-18 19:04 39.191059 -122.044259 353 6371ft 134kts
06-Jun-18 19:05 39.228087 -122.050100 338 6369ft 134kts
06-Jun-18 19:06 39.264371 -122.059595 350 6371ft 134kts
06-Jun-18 19:07 39.301379 -122.066373 350 6371ft 134kts
06-Jun-18 19:08 39.338366 -122.072885 351 6371ft 134kts
06-Jun-18 19:09 39.369324 -122.078251 351 6371ft 134kts
06-Jun-18 19:10 39.406344 -122.084622 351 6371ft 134kts
06-Jun-18 19:11 39.443410 -122.090978 351 6371ft 134kts
06-Jun-18 19:12 39.480282 -122.097506 349 6371ft 134kts
06-Jun-18 19:13 39.516635 -122.106830 335 6372ft 132kts
06-Jun-18 19:14 39.551506 -122.123005 342 6367ft 133kts
06-Jun-18 19:15 39.587699 -122.134227 347 6362ft 134kts
06-Jun-18 19:16 39.615879 -122.141211 348 6357ft 134kts
06-Jun-18 19:17 39.652771 -122.149299 350 6351ft 134kts
06-Jun-18 19:18 39.689758 -122.156846 350 6345ft 134kts
06-Jun-18 19:19 39.726855 -122.164190 350 6345ft 134kts
06-Jun-18 19:20 39.763884 -122.171423 351 6345ft 134kts
06-Jun-18 19:21 39.800964 -122.178620 351 6343ft 135kts
06-Jun-18 19:22 39.839724 -122.186132 351 6029ft 147kts
06-Jun-18 19:23 39.880692 -122.194058 350 5638ft 149kts
06-Jun-18 19:24 39.921750 -122.202019 351 5249ft 150kts
06-Jun-18 19:25 39.962296 -122.209813 350 4696ft 143kts
06-Jun-18 19:26 39.992339 -122.241297 314 4004ft 139kts
06-Jun-18 19:27 40.020789 -122.275510 314 3362ft 136kts
06-Jun-18 19:28 40.046065 -122.305417 314 3344ft 114kts
06-Jun-18 19:29 40.069309 -122.332732 314 3305ft 118kts
06-Jun-18 19:30 40.100466 -122.353984 335 2831ft 135kts
06-Jun-18 19:31 40.129640 -122.370847 335 2401ft 136kts
06-Jun-18 19:32 40.161695 -122.389510 335 2343ft 118kts
06-Jun-18 19:33 40.191559 -122.403945 352 2341ft 112kts
06-Jun-18 19:34 40.223127 -122.409783 353 2338ft 120kts
06-Jun-18 19:35 40.257005 -122.412181 359 2333ft 123kts
06-Jun-18 19:36 40.291372 -122.414073 358 2329ft 124kts
06-Jun-18 19:37 40.327111 -122.413204 10 2045ft 135kts
06-Jun-18 19:38 40.363485 -122.399716 23 1638ft 137kts
06-Jun-18 19:39 40.397480 -122.383687 23 1248ft 126kts
06-Jun-18 19:40 40.430117 -122.373136 354 1325ft 117kts
06-Jun-18 19:41 40.462646 -122.374864 14 1329ft 117kts
06-Jun-18 19:42 40.486261 -122.349797 59 1321ft 109kts
06-Jun-18 19:43 40.510952 -122.329073 6 1326ft 118kts
06-Jun-18 19:44 40.543207 -122.325249 26 1333ft 100kts
06-Jun-18 19:45 40.547008 -122.297551 138 1001ft 75kts
06-Jun-18 19:46 40.525910 -122.294931 176 686ft 71kts
06-Jun-18 19:47 40.514239 -122.295755 269 499ft 14kts
06-Jun-18 19:48 40.512164 -122.296292 180 497ft 21kts
06-Jun-18 19:49 40.505620 -122.296318 179 493ft 23kts
06-Jun-18 19:50 40.504444 -122.298790 345 493ft 7kts
06-Jun-18 19:51 40.504467 -122.298793 357 493ft 0kts

Navigation Log

Ident Type
Flight plan parsing failed, navigation log unavailable